sensor_id;sensor_type;location;lat;lon;timestamp;P1;durP1;ratioP1;P2;durP2;ratioP2
76063;SDS011;64762;52.006;8.424;2022-12-10T00:02:21;17.97;;;9.83;;
76063;SDS011;64762;52.006;8.424;2022-12-10T00:04:46;15.63;;;8.77;;
76063;SDS011;64762;52.006;8.424;2022-12-10T00:07:11;17.37;;;9.40;;
76063;SDS011;64762;52.006;8.424;2022-12-10T00:09:37;14.47;;;8.50;;
76063;SDS011;64762;52.006;8.424;2022-12-10T00:12:03;18.60;;;10.05;;
76063;SDS011;64762;52.006;8.424;2022-12-10T00:14:28;16.20;;;9.95;;
76063;SDS011;64762;52.006;8.424;2022-12-10T00:16:53;15.87;;;9.87;;
76063;SDS011;64762;52.006;8.424;2022-12-10T00:19:19;16.67;;;10.00;;
76063;SDS011;64762;52.006;8.424;2022-12-10T00:21:44;17.20;;;9.63;;
76063;SDS011;64762;52.006;8.424;2022-12-10T00:24:10;19.98;;;10.38;;
76063;SDS011;64762;52.006;8.424;2022-12-10T00:26:36;17.13;;;10.13;;
76063;SDS011;64762;52.006;8.424;2022-12-10T00:29:03;19.83;;;10.80;;
76063;SDS011;64762;52.006;8.424;2022-12-10T00:31:31;20.63;;;11.57;;
76063;SDS011;64762;52.006;8.424;2022-12-10T00:33:59;19.40;;;10.75;;
76063;SDS011;64762;52.006;8.424;2022-12-10T00:36:28;19.00;;;10.80;;
76063;SDS011;64762;52.006;8.424;2022-12-10T00:38:55;18.88;;;10.82;;
76063;SDS011;64762;52.006;8.424;2022-12-10T00:41:20;20.92;;;11.20;;
76063;SDS011;64762;52.006;8.424;2022-12-10T00:43:46;17.80;;;10.10;;
76063;SDS011;64762;52.006;8.424;2022-12-10T00:46:12;19.10;;;11.18;;
76063;SDS011;64762;52.006;8.424;2022-12-10T00:48:38;16.00;;;10.02;;
76063;SDS011;64762;52.006;8.424;2022-12-10T00:51:08;20.45;;;10.57;;
76063;SDS011;64762;52.006;8.424;2022-12-10T00:53:36;20.48;;;10.05;;
76063;SDS011;64762;52.006;8.424;2022-12-10T00:56:03;18.45;;;10.30;;
76063;SDS011;64762;52.006;8.424;2022-12-10T00:58:30;18.38;;;10.43;;
76063;SDS011;64762;52.006;8.424;2022-12-10T01:01:07;19.88;;;11.00;;
76063;SDS011;64762;52.006;8.424;2022-12-10T01:03:45;15.82;;;11.13;;
76063;SDS011;64762;52.006;8.424;2022-12-10T01:06:21;19.17;;;10.35;;
76063;SDS011;64762;52.006;8.424;2022-12-10T01:08:53;18.63;;;10.05;;
76063;SDS011;64762;52.006;8.424;2022-12-10T01:11:21;20.55;;;10.70;;
76063;SDS011;64762;52.006;8.424;2022-12-10T01:13:49;19.85;;;10.00;;
76063;SDS011;64762;52.006;8.424;2022-12-10T01:16:17;17.67;;;10.80;;
76063;SDS011;64762;52.006;8.424;2022-12-10T01:18:43;19.25;;;10.10;;
76063;SDS011;64762;52.006;8.424;2022-12-10T01:21:09;17.37;;;9.73;;
76063;SDS011;64762;52.006;8.424;2022-12-10T01:23:38;18.48;;;9.85;;
76063;SDS011;64762;52.006;8.424;2022-12-10T01:26:06;16.10;;;10.30;;
76063;SDS011;64762;52.006;8.424;2022-12-10T01:28:34;18.08;;;10.18;;
76063;SDS011;64762;52.006;8.424;2022-12-10T01:31:01;16.05;;;10.27;;
76063;SDS011;64762;52.006;8.424;2022-12-10T01:33:27;17.45;;;9.82;;
76063;SDS011;64762;52.006;8.424;2022-12-10T01:35:53;20.05;;;10.35;;
76063;SDS011;64762;52.006;8.424;2022-12-10T01:38:18;17.50;;;9.77;;
76063;SDS011;64762;52.006;8.424;2022-12-10T01:40:43;20.00;;;10.90;;
76063;SDS011;64762;52.006;8.424;2022-12-10T01:43:12;17.50;;;9.33;;
76063;SDS011;64762;52.006;8.424;2022-12-10T01:45:38;16.77;;;9.30;;
76063;SDS011;64762;52.006;8.424;2022-12-10T01:48:04;18.73;;;10.03;;
76063;SDS011;64762;52.006;8.424;2022-12-10T01:50:29;18.90;;;10.50;;
76063;SDS011;64762;52.006;8.424;2022-12-10T01:52:54;18.27;;;10.23;;
76063;SDS011;64762;52.006;8.424;2022-12-10T01:58:06;17.88;;;10.13;;
76063;SDS011;64762;52.006;8.424;2022-12-10T02:00:32;18.57;;;10.30;;
76063;SDS011;64762;52.006;8.424;2022-12-10T02:03:01;16.55;;;10.40;;
76063;SDS011;64762;52.006;8.424;2022-12-10T02:05:32;19.40;;;10.93;;
76063;SDS011;64762;52.006;8.424;2022-12-10T02:08:09;19.83;;;11.13;;
76063;SDS011;64762;52.006;8.424;2022-12-10T02:13:27;18.13;;;10.10;;
76063;SDS011;64762;52.006;8.424;2022-12-10T02:16:01;16.73;;;10.38;;
76063;SDS011;64762;52.006;8.424;2022-12-10T02:18:32;18.45;;;11.27;;
76063;SDS011;64762;52.006;8.424;2022-12-10T02:21:03;18.05;;;11.25;;
76063;SDS011;64762;52.006;8.424;2022-12-10T02:23:40;17.95;;;10.90;;
76063;SDS011;64762;52.006;8.424;2022-12-10T02:26:22;18.02;;;10.32;;
76063;SDS011;64762;52.006;8.424;2022-12-10T02:31:36;18.25;;;10.38;;
76063;SDS011;64762;52.006;8.424;2022-12-10T02:34:04;22.92;;;11.80;;
76063;SDS011;64762;52.006;8.424;2022-12-10T02:36:32;21.70;;;10.57;;
76063;SDS011;64762;52.006;8.424;2022-12-10T02:39:06;18.83;;;11.20;;
76063;SDS011;64762;52.006;8.424;2022-12-10T02:41:34;20.15;;;11.02;;
76063;SDS011;64762;52.006;8.424;2022-12-10T02:44:02;15.77;;;10.02;;
76063;SDS011;64762;52.006;8.424;2022-12-10T02:46:29;17.55;;;9.88;;
76063;SDS011;64762;52.006;8.424;2022-12-10T02:48:55;17.45;;;10.60;;
76063;SDS011;64762;52.006;8.424;2022-12-10T02:51:20;17.88;;;10.73;;
76063;SDS011;64762;52.006;8.424;2022-12-10T02:53:46;18.10;;;10.30;;
76063;SDS011;64762;52.006;8.424;2022-12-10T03:06:52;17.88;;;10.90;;
76063;SDS011;64762;52.006;8.424;2022-12-10T03:11:49;16.92;;;10.38;;
76063;SDS011;64762;52.006;8.424;2022-12-10T03:14:20;19.40;;;10.65;;
76063;SDS011;64762;52.006;8.424;2022-12-10T03:16:58;19.90;;;10.85;;
76063;SDS011;64762;52.006;8.424;2022-12-10T03:19:26;17.30;;;9.75;;
76063;SDS011;64762;52.006;8.424;2022-12-10T03:22:01;16.63;;;9.77;;
76063;SDS011;64762;52.006;8.424;2022-12-10T03:24:27;20.95;;;10.82;;
76063;SDS011;64762;52.006;8.424;2022-12-10T03:26:52;16.70;;;10.85;;
76063;SDS011;64762;52.006;8.424;2022-12-10T03:29:29;20.70;;;10.25;;
76063;SDS011;64762;52.006;8.424;2022-12-10T03:31:58;19.60;;;11.20;;
76063;SDS011;64762;52.006;8.424;2022-12-10T03:34:24;20.40;;;10.63;;
76063;SDS011;64762;52.006;8.424;2022-12-10T03:36:50;19.10;;;10.82;;
76063;SDS011;64762;52.006;8.424;2022-12-10T03:39:15;17.75;;;10.60;;
76063;SDS011;64762;52.006;8.424;2022-12-10T03:41:41;17.90;;;10.32;;
76063;SDS011;64762;52.006;8.424;2022-12-10T03:44:06;18.23;;;9.87;;
76063;SDS011;64762;52.006;8.424;2022-12-10T03:46:32;18.50;;;9.80;;
76063;SDS011;64762;52.006;8.424;2022-12-10T03:48:58;19.17;;;10.32;;
76063;SDS011;64762;52.006;8.424;2022-12-10T03:51:24;17.65;;;9.68;;
76063;SDS011;64762;52.006;8.424;2022-12-10T03:53:49;18.45;;;10.50;;
76063;SDS011;64762;52.006;8.424;2022-12-10T03:56:15;19.40;;;10.98;;
76063;SDS011;64762;52.006;8.424;2022-12-10T03:58:44;20.38;;;11.13;;
76063;SDS011;64762;52.006;8.424;2022-12-10T04:01:09;18.73;;;10.45;;
76063;SDS011;64762;52.006;8.424;2022-12-10T04:03:35;18.63;;;10.75;;
76063;SDS011;64762;52.006;8.424;2022-12-10T04:06:04;17.98;;;10.77;;
76063;SDS011;64762;52.006;8.424;2022-12-10T04:08:32;17.88;;;11.25;;
76063;SDS011;64762;52.006;8.424;2022-12-10T04:11:04;16.40;;;9.73;;
76063;SDS011;64762;52.006;8.424;2022-12-10T04:13:35;18.00;;;11.13;;
76063;SDS011;64762;52.006;8.424;2022-12-10T04:16:20;17.10;;;10.00;;
76063;SDS011;64762;52.006;8.424;2022-12-10T04:18:52;17.75;;;10.65;;
76063;SDS011;64762;52.006;8.424;2022-12-10T04:21:18;16.95;;;9.80;;
76063;SDS011;64762;52.006;8.424;2022-12-10T04:24:02;18.70;;;10.10;;
76063;SDS011;64762;52.006;8.424;2022-12-10T04:26:46;18.15;;;10.48;;
76063;SDS011;64762;52.006;8.424;2022-12-10T04:29:21;18.42;;;11.32;;
76063;SDS011;64762;52.006;8.424;2022-12-10T04:31:48;19.33;;;11.45;;
76063;SDS011;64762;52.006;8.424;2022-12-10T04:34:13;18.25;;;10.75;;
76063;SDS011;64762;52.006;8.424;2022-12-10T04:36:39;15.40;;;10.17;;
76063;SDS011;64762;52.006;8.424;2022-12-10T04:39:04;16.10;;;10.07;;
76063;SDS011;64762;52.006;8.424;2022-12-10T04:41:29;18.67;;;9.67;;
76063;SDS011;64762;52.006;8.424;2022-12-10T04:43:55;18.50;;;10.30;;
76063;SDS011;64762;52.006;8.424;2022-12-10T04:46:20;19.43;;;10.87;;
76063;SDS011;64762;52.006;8.424;2022-12-10T04:48:45;19.30;;;10.23;;
76063;SDS011;64762;52.006;8.424;2022-12-10T04:51:11;20.13;;;10.93;;
76063;SDS011;64762;52.006;8.424;2022-12-10T04:53:36;14.87;;;9.23;;
76063;SDS011;64762;52.006;8.424;2022-12-10T04:56:01;17.97;;;10.83;;
76063;SDS011;64762;52.006;8.424;2022-12-10T04:58:30;18.02;;;10.57;;
76063;SDS011;64762;52.006;8.424;2022-12-10T05:01:02;18.08;;;10.90;;
76063;SDS011;64762;52.006;8.424;2022-12-10T05:03:28;17.30;;;9.50;;
76063;SDS011;64762;52.006;8.424;2022-12-10T05:05:54;17.13;;;10.00;;
76063;SDS011;64762;52.006;8.424;2022-12-10T05:08:19;18.77;;;9.90;;
76063;SDS011;64762;52.006;8.424;2022-12-10T05:10:44;17.77;;;10.67;;
76063;SDS011;64762;52.006;8.424;2022-12-10T05:13:10;18.57;;;10.40;;
76063;SDS011;64762;52.006;8.424;2022-12-10T05:15:37;17.60;;;9.77;;
76063;SDS011;64762;52.006;8.424;2022-12-10T05:18:03;18.00;;;10.43;;
76063;SDS011;64762;52.006;8.424;2022-12-10T05:20:28;15.93;;;10.10;;
76063;SDS011;64762;52.006;8.424;2022-12-10T05:22:54;17.60;;;10.77;;
76063;SDS011;64762;52.006;8.424;2022-12-10T05:25:37;17.13;;;9.80;;
76063;SDS011;64762;52.006;8.424;2022-12-10T05:28:17;16.92;;;10.23;;
76063;SDS011;64762;52.006;8.424;2022-12-10T05:30:46;18.10;;;10.48;;
76063;SDS011;64762;52.006;8.424;2022-12-10T05:33:12;19.20;;;10.90;;
76063;SDS011;64762;52.006;8.424;2022-12-10T05:35:37;18.63;;;10.88;;
76063;SDS011;64762;52.006;8.424;2022-12-10T05:38:03;18.08;;;10.73;;
76063;SDS011;64762;52.006;8.424;2022-12-10T05:40:28;19.50;;;10.60;;
76063;SDS011;64762;52.006;8.424;2022-12-10T05:42:53;14.53;;;9.37;;
76063;SDS011;64762;52.006;8.424;2022-12-10T05:45:19;19.50;;;10.83;;
76063;SDS011;64762;52.006;8.424;2022-12-10T05:47:44;18.20;;;11.00;;
76063;SDS011;64762;52.006;8.424;2022-12-10T05:50:09;17.53;;;10.10;;
76063;SDS011;64762;52.006;8.424;2022-12-10T05:52:35;17.80;;;9.93;;
76063;SDS011;64762;52.006;8.424;2022-12-10T05:55:00;17.70;;;10.27;;
76063;SDS011;64762;52.006;8.424;2022-12-10T05:57:25;16.10;;;9.13;;
76063;SDS011;64762;52.006;8.424;2022-12-10T05:59:51;17.70;;;10.63;;
76063;SDS011;64762;52.006;8.424;2022-12-10T06:02:16;19.37;;;10.30;;
76063;SDS011;64762;52.006;8.424;2022-12-10T06:04:42;17.80;;;9.87;;
76063;SDS011;64762;52.006;8.424;2022-12-10T06:07:07;20.37;;;11.13;;
76063;SDS011;64762;52.006;8.424;2022-12-10T06:09:32;20.37;;;10.77;;
76063;SDS011;64762;52.006;8.424;2022-12-10T06:11:57;19.33;;;11.10;;
76063;SDS011;64762;52.006;8.424;2022-12-10T06:14:23;17.63;;;10.20;;
76063;SDS011;64762;52.006;8.424;2022-12-10T06:16:48;19.13;;;10.57;;
76063;SDS011;64762;52.006;8.424;2022-12-10T06:19:14;18.10;;;10.47;;
76063;SDS011;64762;52.006;8.424;2022-12-10T06:21:39;21.42;;;11.15;;
76063;SDS011;64762;52.006;8.424;2022-12-10T06:24:04;20.97;;;11.33;;
76063;SDS011;64762;52.006;8.424;2022-12-10T06:26:30;18.33;;;10.73;;
76063;SDS011;64762;52.006;8.424;2022-12-10T06:28:55;20.00;;;11.00;;
76063;SDS011;64762;52.006;8.424;2022-12-10T06:31:21;17.00;;;11.07;;
76063;SDS011;64762;52.006;8.424;2022-12-10T06:33:46;17.75;;;11.02;;
76063;SDS011;64762;52.006;8.424;2022-12-10T06:36:12;19.30;;;10.65;;
76063;SDS011;64762;52.006;8.424;2022-12-10T06:38:40;17.73;;;10.68;;
76063;SDS011;64762;52.006;8.424;2022-12-10T06:41:09;18.40;;;10.35;;
76063;SDS011;64762;52.006;8.424;2022-12-10T06:43:35;18.00;;;11.75;;
76063;SDS011;64762;52.006;8.424;2022-12-10T06:46:08;19.00;;;11.63;;
76063;SDS011;64762;52.006;8.424;2022-12-10T06:48:35;18.50;;;10.18;;
76063;SDS011;64762;52.006;8.424;2022-12-10T06:51:01;17.77;;;10.90;;
76063;SDS011;64762;52.006;8.424;2022-12-10T06:53:26;20.40;;;10.60;;
76063;SDS011;64762;52.006;8.424;2022-12-10T06:55:52;19.90;;;10.90;;
76063;SDS011;64762;52.006;8.424;2022-12-10T06:58:17;21.10;;;10.63;;
76063;SDS011;64762;52.006;8.424;2022-12-10T07:00:43;16.73;;;9.85;;
76063;SDS011;64762;52.006;8.424;2022-12-10T07:03:08;17.97;;;10.30;;
76063;SDS011;64762;52.006;8.424;2022-12-10T07:05:33;16.03;;;9.80;;
76063;SDS011;64762;52.006;8.424;2022-12-10T07:07:59;16.45;;;10.05;;
76063;SDS011;64762;52.006;8.424;2022-12-10T07:10:24;16.47;;;10.23;;
76063;SDS011;64762;52.006;8.424;2022-12-10T07:12:50;16.80;;;9.35;;
76063;SDS011;64762;52.006;8.424;2022-12-10T07:15:15;17.17;;;9.73;;
76063;SDS011;64762;52.006;8.424;2022-12-10T07:17:40;18.67;;;11.33;;
76063;SDS011;64762;52.006;8.424;2022-12-10T07:20:06;20.07;;;10.70;;
76063;SDS011;64762;52.006;8.424;2022-12-10T07:22:32;17.77;;;10.32;;
76063;SDS011;64762;52.006;8.424;2022-12-10T07:24:57;16.93;;;10.27;;
76063;SDS011;64762;52.006;8.424;2022-12-10T07:27:22;19.67;;;11.33;;
76063;SDS011;64762;52.006;8.424;2022-12-10T07:29:47;17.47;;;10.23;;
76063;SDS011;64762;52.006;8.424;2022-12-10T07:32:13;16.97;;;10.20;;
76063;SDS011;64762;52.006;8.424;2022-12-10T07:34:38;17.17;;;9.80;;
76063;SDS011;64762;52.006;8.424;2022-12-10T07:37:03;17.33;;;10.00;;
76063;SDS011;64762;52.006;8.424;2022-12-10T07:39:29;16.27;;;9.47;;
76063;SDS011;64762;52.006;8.424;2022-12-10T07:41:54;21.73;;;9.87;;
76063;SDS011;64762;52.006;8.424;2022-12-10T07:44:20;18.07;;;9.77;;
76063;SDS011;64762;52.006;8.424;2022-12-10T07:46:47;15.88;;;9.18;;
76063;SDS011;64762;52.006;8.424;2022-12-10T07:49:14;15.20;;;9.32;;
76063;SDS011;64762;52.006;8.424;2022-12-10T07:51:39;15.68;;;10.10;;
76063;SDS011;64762;52.006;8.424;2022-12-10T07:54:07;17.83;;;10.98;;
76063;SDS011;64762;52.006;8.424;2022-12-10T07:56:32;17.27;;;10.13;;
76063;SDS011;64762;52.006;8.424;2022-12-10T07:58:58;18.13;;;10.03;;
76063;SDS011;64762;52.006;8.424;2022-12-10T08:01:24;18.27;;;10.67;;
76063;SDS011;64762;52.006;8.424;2022-12-10T08:03:51;17.58;;;10.00;;
76063;SDS011;64762;52.006;8.424;2022-12-10T08:06:18;16.40;;;10.02;;
76063;SDS011;64762;52.006;8.424;2022-12-10T08:08:44;18.33;;;10.63;;
76063;SDS011;64762;52.006;8.424;2022-12-10T08:11:11;16.95;;;10.07;;
76063;SDS011;64762;52.006;8.424;2022-12-10T08:13:37;17.42;;;10.48;;
76063;SDS011;64762;52.006;8.424;2022-12-10T08:16:03;17.65;;;10.00;;
76063;SDS011;64762;52.006;8.424;2022-12-10T08:18:32;19.30;;;10.90;;
76063;SDS011;64762;52.006;8.424;2022-12-10T08:20:58;18.52;;;10.32;;
76063;SDS011;64762;52.006;8.424;2022-12-10T08:23:23;17.90;;;10.70;;
76063;SDS011;64762;52.006;8.424;2022-12-10T08:25:48;19.40;;;11.00;;
76063;SDS011;64762;52.006;8.424;2022-12-10T08:28:14;16.02;;;9.95;;
76063;SDS011;64762;52.006;8.424;2022-12-10T08:30:44;16.75;;;10.88;;
76063;SDS011;64762;52.006;8.424;2022-12-10T08:33:11;22.05;;;11.63;;
76063;SDS011;64762;52.006;8.424;2022-12-10T08:35:36;18.15;;;10.65;;
76063;SDS011;64762;52.006;8.424;2022-12-10T08:38:01;18.13;;;10.57;;
76063;SDS011;64762;52.006;8.424;2022-12-10T08:40:27;17.80;;;9.87;;
76063;SDS011;64762;52.006;8.424;2022-12-10T08:42:52;17.57;;;10.63;;
76063;SDS011;64762;52.006;8.424;2022-12-10T08:45:17;17.50;;;10.60;;
76063;SDS011;64762;52.006;8.424;2022-12-10T08:47:43;18.90;;;10.77;;
76063;SDS011;64762;52.006;8.424;2022-12-10T08:50:08;16.35;;;9.40;;
76063;SDS011;64762;52.006;8.424;2022-12-10T08:52:33;20.43;;;11.37;;
76063;SDS011;64762;52.006;8.424;2022-12-10T08:54:59;16.27;;;10.30;;
76063;SDS011;64762;52.006;8.424;2022-12-10T08:57:24;16.70;;;9.37;;
76063;SDS011;64762;52.006;8.424;2022-12-10T08:59:49;17.23;;;10.43;;
76063;SDS011;64762;52.006;8.424;2022-12-10T09:02:15;20.85;;;9.95;;
76063;SDS011;64762;52.006;8.424;2022-12-10T09:04:40;15.70;;;9.77;;
76063;SDS011;64762;52.006;8.424;2022-12-10T09:07:07;16.10;;;10.20;;
76063;SDS011;64762;52.006;8.424;2022-12-10T09:09:33;17.20;;;9.77;;
76063;SDS011;64762;52.006;8.424;2022-12-10T09:11:58;18.63;;;11.10;;
76063;SDS011;64762;52.006;8.424;2022-12-10T09:14:23;15.47;;;9.17;;
76063;SDS011;64762;52.006;8.424;2022-12-10T09:16:50;16.40;;;10.68;;
76063;SDS011;64762;52.006;8.424;2022-12-10T09:19:15;16.97;;;9.97;;
76063;SDS011;64762;52.006;8.424;2022-12-10T09:21:40;19.80;;;11.53;;
76063;SDS011;64762;52.006;8.424;2022-12-10T09:24:06;14.77;;;9.50;;
76063;SDS011;64762;52.006;8.424;2022-12-10T09:26:31;15.95;;;10.32;;
76063;SDS011;64762;52.006;8.424;2022-12-10T09:28:57;16.40;;;10.67;;
76063;SDS011;64762;52.006;8.424;2022-12-10T09:31:23;19.42;;;13.07;;
76063;SDS011;64762;52.006;8.424;2022-12-10T09:33:51;17.50;;;11.00;;
76063;SDS011;64762;52.006;8.424;2022-12-10T09:36:17;15.77;;;10.05;;
76063;SDS011;64762;52.006;8.424;2022-12-10T09:38:43;16.38;;;10.38;;
76063;SDS011;64762;52.006;8.424;2022-12-10T09:51:48;19.77;;;11.23;;
76063;SDS011;64762;52.006;8.424;2022-12-10T09:56:50;16.25;;;9.25;;
76063;SDS011;64762;52.006;8.424;2022-12-10T09:59:30;19.00;;;10.70;;
76063;SDS011;64762;52.006;8.424;2022-12-10T10:04:50;17.33;;;10.30;;
76063;SDS011;64762;52.006;8.424;2022-12-10T10:07:19;16.38;;;10.63;;
76063;SDS011;64762;52.006;8.424;2022-12-10T10:09:46;15.82;;;9.85;;
76063;SDS011;64762;52.006;8.424;2022-12-10T10:12:14;15.00;;;9.90;;
76063;SDS011;64762;52.006;8.424;2022-12-10T10:14:41;15.45;;;9.88;;
76063;SDS011;64762;52.006;8.424;2022-12-10T10:17:16;13.90;;;8.88;;
76063;SDS011;64762;52.006;8.424;2022-12-10T10:19:45;16.10;;;9.88;;
76063;SDS011;64762;52.006;8.424;2022-12-10T10:22:10;16.93;;;10.77;;
76063;SDS011;64762;52.006;8.424;2022-12-10T10:24:37;16.08;;;10.38;;
76063;SDS011;64762;52.006;8.424;2022-12-10T10:27:15;18.33;;;10.02;;
76063;SDS011;64762;52.006;8.424;2022-12-10T10:29:43;16.77;;;9.73;;
76063;SDS011;64762;52.006;8.424;2022-12-10T10:32:11;19.00;;;10.80;;
76063;SDS011;64762;52.006;8.424;2022-12-10T10:34:38;15.32;;;9.70;;
76063;SDS011;64762;52.006;8.424;2022-12-10T10:37:04;14.82;;;9.20;;
76063;SDS011;64762;52.006;8.424;2022-12-10T10:39:30;15.50;;;9.80;;
76063;SDS011;64762;52.006;8.424;2022-12-10T10:41:57;15.68;;;9.60;;
76063;SDS011;64762;52.006;8.424;2022-12-10T10:44:24;16.58;;;10.05;;
76063;SDS011;64762;52.006;8.424;2022-12-10T10:46:52;14.25;;;9.02;;
76063;SDS011;64762;52.006;8.424;2022-12-10T10:49:31;16.23;;;10.00;;
76063;SDS011;64762;52.006;8.424;2022-12-10T10:52:06;14.82;;;9.75;;
76063;SDS011;64762;52.006;8.424;2022-12-10T10:54:39;14.40;;;9.98;;
76063;SDS011;64762;52.006;8.424;2022-12-10T10:57:10;13.48;;;9.32;;
76063;SDS011;64762;52.006;8.424;2022-12-10T11:00:17;18.17;;;9.73;;
76063;SDS011;64762;52.006;8.424;2022-12-10T11:02:45;15.45;;;9.82;;
76063;SDS011;64762;52.006;8.424;2022-12-10T11:05:19;15.90;;;10.20;;
76063;SDS011;64762;52.006;8.424;2022-12-10T11:10:20;15.43;;;8.70;;
76063;SDS011;64762;52.006;8.424;2022-12-10T11:17:53;15.07;;;8.93;;
76063;SDS011;64762;52.006;8.424;2022-12-10T11:20:37;13.27;;;8.70;;
76063;SDS011;64762;52.006;8.424;2022-12-10T11:23:08;15.63;;;10.13;;
76063;SDS011;64762;52.006;8.424;2022-12-10T11:25:56;19.52;;;11.60;;
76063;SDS011;64762;52.006;8.424;2022-12-10T11:31:37;14.87;;;9.47;;
76063;SDS011;64762;52.006;8.424;2022-12-10T11:44:43;14.35;;;9.23;;
76063;SDS011;64762;52.006;8.424;2022-12-10T11:47:17;14.90;;;9.52;;
76063;SDS011;64762;52.006;8.424;2022-12-10T11:49:57;16.65;;;8.82;;
76063;SDS011;64762;52.006;8.424;2022-12-10T12:04:16;11.98;;;7.88;;
76063;SDS011;64762;52.006;8.424;2022-12-10T12:12:51;11.75;;;8.18;;
76063;SDS011;64762;52.006;8.424;2022-12-10T12:15:21;12.80;;;8.05;;
76063;SDS011;64762;52.006;8.424;2022-12-10T12:17:57;12.98;;;7.75;;
76063;SDS011;64762;52.006;8.424;2022-12-10T12:20:37;12.38;;;7.45;;
76063;SDS011;64762;52.006;8.424;2022-12-10T12:23:09;13.00;;;8.30;;
76063;SDS011;64762;52.006;8.424;2022-12-10T12:25:45;12.02;;;7.55;;
76063;SDS011;64762;52.006;8.424;2022-12-10T12:31:01;12.20;;;7.72;;
76063;SDS011;64762;52.006;8.424;2022-12-10T12:36:30;11.52;;;7.40;;
76063;SDS011;64762;52.006;8.424;2022-12-10T12:39:02;13.15;;;7.38;;
76063;SDS011;64762;52.006;8.424;2022-12-10T12:50:26;12.05;;;7.28;;
76063;SDS011;64762;52.006;8.424;2022-12-10T12:52:57;14.00;;;7.22;;
76063;SDS011;64762;52.006;8.424;2022-12-10T12:55:27;11.63;;;7.03;;
76063;SDS011;64762;52.006;8.424;2022-12-10T12:58:01;11.30;;;7.15;;
76063;SDS011;64762;52.006;8.424;2022-12-10T13:00:39;12.00;;;7.30;;
76063;SDS011;64762;52.006;8.424;2022-12-10T13:05:53;13.18;;;7.10;;
76063;SDS011;64762;52.006;8.424;2022-12-10T13:22:40;9.52;;;5.65;;
76063;SDS011;64762;52.006;8.424;2022-12-10T13:36:13;9.57;;;5.83;;
76063;SDS011;64762;52.006;8.424;2022-12-10T13:38:39;9.80;;;5.90;;
76063;SDS011;64762;52.006;8.424;2022-12-10T13:41:06;10.88;;;6.85;;
76063;SDS011;64762;52.006;8.424;2022-12-10T13:43:51;9.20;;;6.35;;
76063;SDS011;64762;52.006;8.424;2022-12-10T13:49:27;10.68;;;6.18;;
76063;SDS011;64762;52.006;8.424;2022-12-10T13:56:55;11.18;;;6.97;;
76063;SDS011;64762;52.006;8.424;2022-12-10T14:07:11;9.57;;;5.45;;
76063;SDS011;64762;52.006;8.424;2022-12-10T14:09:41;10.75;;;6.43;;
76063;SDS011;64762;52.006;8.424;2022-12-10T14:12:17;9.50;;;5.53;;
76063;SDS011;64762;52.006;8.424;2022-12-10T14:14:46;11.07;;;5.85;;
76063;SDS011;64762;52.006;8.424;2022-12-10T14:17:14;10.18;;;5.75;;
76063;SDS011;64762;52.006;8.424;2022-12-10T14:19:42;9.57;;;5.03;;
76063;SDS011;64762;52.006;8.424;2022-12-10T14:22:15;7.90;;;4.75;;
76063;SDS011;64762;52.006;8.424;2022-12-10T14:24:43;10.45;;;5.53;;
76063;SDS011;64762;52.006;8.424;2022-12-10T14:27:15;8.70;;;5.53;;
76063;SDS011;64762;52.006;8.424;2022-12-10T14:29:46;7.63;;;4.82;;
76063;SDS011;64762;52.006;8.424;2022-12-10T14:32:17;8.88;;;5.57;;
76063;SDS011;64762;52.006;8.424;2022-12-10T14:34:47;8.35;;;5.28;;
76063;SDS011;64762;52.006;8.424;2022-12-10T14:37:15;10.27;;;5.65;;
76063;SDS011;64762;52.006;8.424;2022-12-10T14:39:41;8.73;;;5.93;;
76063;SDS011;64762;52.006;8.424;2022-12-10T14:42:06;8.90;;;5.73;;
76063;SDS011;64762;52.006;8.424;2022-12-10T14:44:38;9.65;;;5.95;;
76063;SDS011;64762;52.006;8.424;2022-12-10T14:47:05;8.85;;;5.63;;
76063;SDS011;64762;52.006;8.424;2022-12-10T14:52:11;10.00;;;5.53;;
76063;SDS011;64762;52.006;8.424;2022-12-10T14:54:44;10.57;;;7.03;;
76063;SDS011;64762;52.006;8.424;2022-12-10T14:57:15;15.23;;;9.32;;
76063;SDS011;64762;52.006;8.424;2022-12-10T14:59:50;11.13;;;7.50;;
76063;SDS011;64762;52.006;8.424;2022-12-10T15:02:27;16.05;;;10.13;;
76063;SDS011;64762;52.006;8.424;2022-12-10T15:04:55;11.63;;;7.28;;
76063;SDS011;64762;52.006;8.424;2022-12-10T15:07:22;11.57;;;7.70;;
76063;SDS011;64762;52.006;8.424;2022-12-10T15:09:49;9.50;;;6.75;;
76063;SDS011;64762;52.006;8.424;2022-12-10T15:12:36;13.13;;;8.05;;
76063;SDS011;64762;52.006;8.424;2022-12-10T15:15:11;10.10;;;6.85;;
76063;SDS011;64762;52.006;8.424;2022-12-10T15:17:50;13.55;;;8.63;;
76063;SDS011;64762;52.006;8.424;2022-12-10T15:20:24;11.45;;;7.75;;
76063;SDS011;64762;52.006;8.424;2022-12-10T15:22:52;10.18;;;6.32;;
76063;SDS011;64762;52.006;8.424;2022-12-10T15:25:25;10.43;;;6.83;;
76063;SDS011;64762;52.006;8.424;2022-12-10T15:27:57;11.45;;;7.13;;
76063;SDS011;64762;52.006;8.424;2022-12-10T15:30:24;11.57;;;7.47;;
76063;SDS011;64762;52.006;8.424;2022-12-10T15:32:58;14.32;;;9.25;;
76063;SDS011;64762;52.006;8.424;2022-12-10T15:35:23;10.55;;;6.50;;
76063;SDS011;64762;52.006;8.424;2022-12-10T15:37:49;11.05;;;6.97;;
76063;SDS011;64762;52.006;8.424;2022-12-10T15:40:34;10.80;;;7.20;;
76063;SDS011;64762;52.006;8.424;2022-12-10T15:45:58;10.23;;;6.00;;
76063;SDS011;64762;52.006;8.424;2022-12-10T15:48:24;12.02;;;6.30;;
76063;SDS011;64762;52.006;8.424;2022-12-10T15:50:52;11.07;;;6.70;;
76063;SDS011;64762;52.006;8.424;2022-12-10T15:53:27;10.17;;;6.40;;
76063;SDS011;64762;52.006;8.424;2022-12-10T15:55:54;9.55;;;5.55;;
76063;SDS011;64762;52.006;8.424;2022-12-10T15:58:19;11.03;;;7.20;;
76063;SDS011;64762;52.006;8.424;2022-12-10T16:00:44;9.37;;;6.00;;
76063;SDS011;64762;52.006;8.424;2022-12-10T16:03:12;10.82;;;6.45;;
76063;SDS011;64762;52.006;8.424;2022-12-10T16:05:40;10.07;;;6.18;;
76063;SDS011;64762;52.006;8.424;2022-12-10T16:08:22;9.65;;;6.25;;
76063;SDS011;64762;52.006;8.424;2022-12-10T16:10:51;13.82;;;7.10;;
76063;SDS011;64762;52.006;8.424;2022-12-10T16:13:22;9.82;;;5.63;;
76063;SDS011;64762;52.006;8.424;2022-12-10T16:16:00;9.77;;;6.60;;
76063;SDS011;64762;52.006;8.424;2022-12-10T16:18:28;9.68;;;7.07;;
76063;SDS011;64762;52.006;8.424;2022-12-10T16:20:53;11.47;;;7.53;;
76063;SDS011;64762;52.006;8.424;2022-12-10T16:23:18;11.63;;;6.23;;
76063;SDS011;64762;52.006;8.424;2022-12-10T16:25:44;11.43;;;7.25;;
76063;SDS011;64762;52.006;8.424;2022-12-10T16:28:14;11.05;;;6.90;;
76063;SDS011;64762;52.006;8.424;2022-12-10T16:33:18;11.40;;;6.88;;
76063;SDS011;64762;52.006;8.424;2022-12-10T16:35:45;11.85;;;7.38;;
76063;SDS011;64762;52.006;8.424;2022-12-10T16:38:12;13.00;;;8.38;;
76063;SDS011;64762;52.006;8.424;2022-12-10T16:40:38;12.50;;;7.18;;
76063;SDS011;64762;52.006;8.424;2022-12-10T16:43:04;11.23;;;6.75;;
76063;SDS011;64762;52.006;8.424;2022-12-10T16:45:32;12.93;;;7.30;;
76063;SDS011;64762;52.006;8.424;2022-12-10T16:47:59;12.27;;;7.32;;
76063;SDS011;64762;52.006;8.424;2022-12-10T16:50:25;9.57;;;6.28;;
76063;SDS011;64762;52.006;8.424;2022-12-10T16:52:52;11.50;;;7.30;;
76063;SDS011;64762;52.006;8.424;2022-12-10T16:55:19;12.23;;;7.25;;
76063;SDS011;64762;52.006;8.424;2022-12-10T16:57:46;9.73;;;5.95;;
76063;SDS011;64762;52.006;8.424;2022-12-10T17:00:15;11.80;;;7.47;;